createdAt,value
2023-04-11T00:01:53.740Z,77.85
2023-04-11T00:11:53.600Z,77.79
2023-04-11T00:21:55.452Z,77.87
2023-04-11T00:31:56.263Z,77.88
2023-04-11T00:41:56.866Z,77.79
2023-04-11T00:51:56.620Z,77.77
2023-04-11T01:01:56.871Z,77.73
2023-04-11T01:11:57.778Z,77.60
2023-04-11T01:21:57.880Z,77.45
2023-04-11T01:31:57.923Z,77.32
2023-04-11T01:41:58.539Z,77.23
2023-04-11T01:51:59.848Z,77.12
2023-04-11T02:02:00.121Z,76.97
2023-04-11T02:12:00.941Z,76.89
2023-04-11T02:22:00.784Z,76.80
2023-04-11T02:32:00.890Z,76.69
2023-04-11T02:42:00.973Z,76.49
2023-04-11T02:52:01.879Z,76.31
2023-04-11T03:02:03.114Z,76.18
2023-04-11T03:12:04.240Z,76.01
2023-04-11T03:22:04.973Z,75.94
2023-04-11T03:32:06.980Z,75.89
2023-04-11T03:42:07.252Z,75.78
2023-04-11T03:52:10.118Z,75.87
2023-04-11T04:02:12.155Z,75.83
2023-04-11T04:12:14.867Z,75.84
2023-04-11T04:22:18.210Z,75.88
2023-04-11T04:32:21.306Z,76.42
2023-04-11T04:42:22.844Z,76.74
2023-04-11T04:52:23.036Z,77.18
2023-04-11T05:02:25.853Z,77.54
2023-04-11T05:12:28.622Z,77.73
2023-04-11T05:22:29.473Z,77.84
2023-04-11T05:32:30.539Z,77.94
2023-04-11T05:42:32.895Z,77.96
2023-04-11T05:52:32.999Z,78.16
2023-04-11T06:02:33.753Z,78.21
2023-04-11T06:12:34.010Z,77.58
2023-04-11T06:22:34.043Z,77.09
2023-04-11T06:32:34.079Z,76.08
2023-04-11T06:42:34.117Z,74.41
2023-04-11T06:52:34.034Z,73.36
2023-04-11T07:02:35.689Z,73.81
2023-04-11T07:12:36.084Z,71.73
2023-04-11T07:22:36.581Z,58.76
2023-04-11T07:32:37.138Z,63.82
2023-04-11T07:42:37.231Z,57.99
2023-04-11T07:52:37.134Z,59.14
2023-04-11T08:02:37.679Z,52.30
2023-04-11T08:12:38.359Z,52.35
2023-04-11T08:22:38.861Z,51.17
2023-04-11T08:32:40.537Z,46.70
2023-04-11T08:42:40.318Z,40.25
2023-04-11T08:52:40.575Z,42.33
2023-04-11T09:02:40.567Z,36.55
2023-04-11T09:12:40.311Z,39.60
2023-04-11T09:22:42.624Z,37.13
2023-04-11T09:32:42.269Z,33.87
2023-04-11T09:43:01.990Z,29.67
2023-04-11T09:53:02.349Z,26.59
2023-04-11T10:03:02.609Z,24.44
2023-04-11T10:13:03.461Z,27.07
2023-04-11T10:23:06.095Z,30.78
2023-04-11T10:33:08.564Z,31.27
2023-04-11T10:43:11.459Z,31.45
2023-04-11T10:53:13.528Z,31.04
2023-04-11T11:03:13.547Z,30.47
2023-04-11T11:13:14.555Z,31.03
2023-04-11T11:23:14.458Z,31.42
2023-04-11T11:33:15.299Z,32.49
2023-04-11T11:43:16.119Z,34.03
2023-04-11T11:53:16.846Z,34.97
2023-04-11T12:03:17.860Z,35.35
2023-04-11T12:13:20.889Z,35.84
2023-04-11T12:23:20.521Z,35.73
2023-04-11T12:33:20.593Z,35.79
2023-04-11T12:43:20.885Z,35.84
2023-04-11T12:53:20.654Z,35.69
2023-04-11T13:03:23.767Z,35.40
2023-04-11T13:13:23.658Z,35.67
2023-04-11T13:23:23.599Z,33.92
2023-04-11T13:33:23.707Z,33.84
2023-04-11T13:43:23.661Z,34.60
2023-04-11T13:53:23.961Z,34.22
2023-04-11T14:03:26.959Z,33.44
2023-04-11T14:13:27.702Z,33.89
2023-04-11T14:23:28.144Z,36.39
2023-04-11T14:33:28.841Z,38.23
2023-04-11T14:43:28.847Z,39.29
2023-04-11T14:53:28.815Z,40.21
2023-04-11T15:03:29.008Z,39.49
2023-04-11T15:13:40.302Z,39.20
2023-04-11T15:23:40.816Z,40.11
2023-04-11T15:33:40.851Z,41.20
2023-04-11T15:43:42.568Z,42.08
2023-04-11T15:53:43.052Z,42.48
2023-04-11T16:03:43.968Z,43.03
2023-04-11T16:13:46.870Z,44.31
2023-04-11T16:23:46.985Z,45.56
2023-04-11T16:33:46.852Z,46.54
2023-04-11T16:43:46.850Z,47.45
2023-04-11T16:53:47.080Z,48.30
2023-04-11T17:03:46.979Z,48.99
2023-04-11T17:13:48.909Z,49.64
2023-04-11T17:23:50.251Z,50.56
2023-04-11T17:33:49.933Z,51.30
2023-04-11T17:43:50.368Z,51.85
2023-04-11T17:53:51.815Z,52.19
2023-04-11T18:03:52.173Z,52.67
2023-04-11T18:13:52.009Z,53.01
2023-04-11T18:23:52.149Z,53.47
2023-04-11T18:33:52.227Z,53.68
2023-04-11T18:43:55.202Z,54.09
2023-04-11T18:53:55.621Z,54.42
2023-04-11T19:03:57.189Z,54.71
2023-04-11T19:13:59.597Z,54.97
2023-04-11T19:24:00.201Z,55.19
2023-04-11T19:34:00.219Z,55.33
2023-04-11T19:44:00.106Z,55.58
2023-04-11T19:54:00.322Z,55.79
2023-04-11T20:04:01.902Z,56.08
2023-04-11T20:14:02.186Z,56.31
2023-04-11T20:24:03.209Z,56.45
2023-04-11T20:34:03.168Z,56.72
2023-04-11T20:44:04.065Z,56.90
2023-04-11T20:54:04.313Z,57.09
2023-04-11T21:04:04.408Z,57.17
2023-04-11T21:14:04.274Z,57.28
2023-04-11T21:24:06.167Z,57.30
2023-04-11T21:34:06.398Z,57.32
2023-04-11T21:44:06.331Z,57.28
2023-04-11T21:54:06.370Z,57.28
2023-04-11T22:04:08.517Z,57.28
2023-04-11T22:14:11.244Z,57.35
2023-04-11T22:24:11.366Z,57.36
2023-04-11T22:34:11.804Z,57.40
2023-04-11T22:44:12.383Z,57.40
2023-04-11T22:54:13.003Z,57.41
2023-04-11T23:04:13.372Z,57.47
2023-04-11T23:14:14.819Z,57.55
2023-04-11T23:24:15.480Z,57.70
2023-04-11T23:34:15.674Z,57.97
2023-04-11T23:44:15.512Z,58.31
2023-04-11T23:54:15.537Z,59.23
